sensor_id;sensor_type;location;lat;lon;timestamp;temperature;humidity
31074;DHT22;17730;53.552;9.940;2023-04-24T00:01:11;12.80;99.90
31074;DHT22;17730;53.552;9.940;2023-04-24T00:03:38;12.70;99.90
31074;DHT22;17730;53.552;9.940;2023-04-24T00:06:04;12.70;99.90
31074;DHT22;17730;53.552;9.940;2023-04-24T00:08:30;12.70;99.90
31074;DHT22;17730;53.552;9.940;2023-04-24T00:10:56;12.70;99.90
31074;DHT22;17730;53.552;9.940;2023-04-24T00:13:21;12.70;99.90
31074;DHT22;17730;53.552;9.940;2023-04-24T00:15:47;12.70;99.90
31074;DHT22;17730;53.552;9.940;2023-04-24T00:18:12;12.60;99.90
31074;DHT22;17730;53.552;9.940;2023-04-24T00:20:38;12.70;99.90
31074;DHT22;17730;53.552;9.940;2023-04-24T00:23:03;12.60;99.90
31074;DHT22;17730;53.552;9.940;2023-04-24T00:25:29;12.60;99.90
31074;DHT22;17730;53.552;9.940;2023-04-24T00:27:54;12.60;99.90
31074;DHT22;17730;53.552;9.940;2023-04-24T00:30:19;12.60;99.90
31074;DHT22;17730;53.552;9.940;2023-04-24T00:32:45;12.60;99.90
31074;DHT22;17730;53.552;9.940;2023-04-24T00:35:10;12.70;99.90
31074;DHT22;17730;53.552;9.940;2023-04-24T00:37:36;12.50;99.90
31074;DHT22;17730;53.552;9.940;2023-04-24T00:40:02;12.50;99.90
31074;DHT22;17730;53.552;9.940;2023-04-24T00:42:28;12.50;99.90
31074;DHT22;17730;53.552;9.940;2023-04-24T00:44:54;12.50;99.90
31074;DHT22;17730;53.552;9.940;2023-04-24T00:47:19;12.50;99.90
31074;DHT22;17730;53.552;9.940;2023-04-24T00:49:45;12.40;99.90
31074;DHT22;17730;53.552;9.940;2023-04-24T00:52:10;12.30;99.90
31074;DHT22;17730;53.552;9.940;2023-04-24T00:54:37;12.20;99.90
31074;DHT22;17730;53.552;9.940;2023-04-24T00:57:03;12.20;99.90
31074;DHT22;17730;53.552;9.940;2023-04-24T00:59:29;12.20;99.90
31074;DHT22;17730;53.552;9.940;2023-04-24T01:01:54;12.10;99.90
31074;DHT22;17730;53.552;9.940;2023-04-24T01:04:20;12.10;99.90
31074;DHT22;17730;53.552;9.940;2023-04-24T01:06:46;12.00;99.90
31074;DHT22;17730;53.552;9.940;2023-04-24T01:09:12;12.00;99.90
31074;DHT22;17730;53.552;9.940;2023-04-24T01:11:37;11.90;99.90
31074;DHT22;17730;53.552;9.940;2023-04-24T01:14:03;11.90;99.90
31074;DHT22;17730;53.552;9.940;2023-04-24T01:16:28;11.90;99.90
31074;DHT22;17730;53.552;9.940;2023-04-24T01:18:54;11.90;99.90
31074;DHT22;17730;53.552;9.940;2023-04-24T01:21:19;11.90;99.90
31074;DHT22;17730;53.552;9.940;2023-04-24T01:23:46;11.80;99.90
31074;DHT22;17730;53.552;9.940;2023-04-24T01:26:13;11.80;99.90
31074;DHT22;17730;53.552;9.940;2023-04-24T01:28:38;11.80;99.90
31074;DHT22;17730;53.552;9.940;2023-04-24T01:31:04;11.90;99.90
31074;DHT22;17730;53.552;9.940;2023-04-24T01:33:29;11.90;99.90
31074;DHT22;17730;53.552;9.940;2023-04-24T01:35:55;11.90;99.90
31074;DHT22;17730;53.552;9.940;2023-04-24T01:38:20;11.90;99.90
31074;DHT22;17730;53.552;9.940;2023-04-24T01:40:46;12.00;99.90
31074;DHT22;17730;53.552;9.940;2023-04-24T01:43:12;12.00;99.90
31074;DHT22;17730;53.552;9.940;2023-04-24T01:45:37;12.10;99.90
31074;DHT22;17730;53.552;9.940;2023-04-24T01:48:03;12.10;99.90
31074;DHT22;17730;53.552;9.940;2023-04-24T01:50:28;12.10;99.90
31074;DHT22;17730;53.552;9.940;2023-04-24T01:52:54;12.20;99.90
31074;DHT22;17730;53.552;9.940;2023-04-24T01:55:20;12.20;99.90
31074;DHT22;17730;53.552;9.940;2023-04-24T01:57:46;12.20;99.90
31074;DHT22;17730;53.552;9.940;2023-04-24T02:00:11;12.20;99.90
31074;DHT22;17730;53.552;9.940;2023-04-24T02:02:37;12.10;99.90
31074;DHT22;17730;53.552;9.940;2023-04-24T02:05:05;12.20;99.90
31074;DHT22;17730;53.552;9.940;2023-04-24T02:07:31;12.10;99.90
31074;DHT22;17730;53.552;9.940;2023-04-24T02:09:58;12.10;99.90
31074;DHT22;17730;53.552;9.940;2023-04-24T02:12:23;12.00;99.90
31074;DHT22;17730;53.552;9.940;2023-04-24T02:14:48;11.90;99.90
31074;DHT22;17730;53.552;9.940;2023-04-24T02:17:14;11.80;99.90
31074;DHT22;17730;53.552;9.940;2023-04-24T02:19:40;11.80;99.90
31074;DHT22;17730;53.552;9.940;2023-04-24T02:22:06;11.80;99.90
31074;DHT22;17730;53.552;9.940;2023-04-24T02:24:31;11.70;99.90
31074;DHT22;17730;53.552;9.940;2023-04-24T02:26:57;11.70;99.90
31074;DHT22;17730;53.552;9.940;2023-04-24T02:29:23;11.70;99.90
31074;DHT22;17730;53.552;9.940;2023-04-24T02:31:48;11.60;99.90
31074;DHT22;17730;53.552;9.940;2023-04-24T02:34:14;11.60;99.90
31074;DHT22;17730;53.552;9.940;2023-04-24T02:36:39;11.50;99.90
31074;DHT22;17730;53.552;9.940;2023-04-24T02:39:05;11.50;99.90
31074;DHT22;17730;53.552;9.940;2023-04-24T02:41:30;11.40;99.90
31074;DHT22;17730;53.552;9.940;2023-04-24T02:43:58;11.30;99.90
31074;DHT22;17730;53.552;9.940;2023-04-24T02:46:23;11.30;99.90
31074;DHT22;17730;53.552;9.940;2023-04-24T02:48:49;11.30;99.90
31074;DHT22;17730;53.552;9.940;2023-04-24T02:51:14;11.20;99.90
31074;DHT22;17730;53.552;9.940;2023-04-24T02:53:40;11.20;99.90
31074;DHT22;17730;53.552;9.940;2023-04-24T02:56:05;11.20;99.90
31074;DHT22;17730;53.552;9.940;2023-04-24T02:58:31;11.10;99.90
31074;DHT22;17730;53.552;9.940;2023-04-24T03:00:56;11.10;99.90
31074;DHT22;17730;53.552;9.940;2023-04-24T03:03:22;11.00;99.90
31074;DHT22;17730;53.552;9.940;2023-04-24T03:05:47;11.00;99.90
31074;DHT22;17730;53.552;9.940;2023-04-24T03:08:13;11.00;99.90
31074;DHT22;17730;53.552;9.940;2023-04-24T03:10:39;11.00;99.90
31074;DHT22;17730;53.552;9.940;2023-04-24T03:13:05;10.90;99.90
31074;DHT22;17730;53.552;9.940;2023-04-24T03:15:30;10.90;99.90
31074;DHT22;17730;53.552;9.940;2023-04-24T03:17:56;10.80;99.90
31074;DHT22;17730;53.552;9.940;2023-04-24T03:20:21;10.80;99.90
31074;DHT22;17730;53.552;9.940;2023-04-24T03:22:47;10.80;99.90
31074;DHT22;17730;53.552;9.940;2023-04-24T03:25:12;10.80;99.90
31074;DHT22;17730;53.552;9.940;2023-04-24T03:27:38;10.80;99.90
31074;DHT22;17730;53.552;9.940;2023-04-24T03:30:05;10.70;99.90
31074;DHT22;17730;53.552;9.940;2023-04-24T03:32:31;10.80;99.90
31074;DHT22;17730;53.552;9.940;2023-04-24T03:34:57;10.70;99.90
31074;DHT22;17730;53.552;9.940;2023-04-24T03:37:22;10.60;99.90
31074;DHT22;17730;53.552;9.940;2023-04-24T03:39:48;10.60;99.90
31074;DHT22;17730;53.552;9.940;2023-04-24T03:42:13;10.60;99.90
31074;DHT22;17730;53.552;9.940;2023-04-24T03:44:39;10.60;99.90
31074;DHT22;17730;53.552;9.940;2023-04-24T03:47:04;10.60;99.90
31074;DHT22;17730;53.552;9.940;2023-04-24T03:49:30;10.50;99.90
31074;DHT22;17730;53.552;9.940;2023-04-24T03:51:55;10.50;99.90
31074;DHT22;17730;53.552;9.940;2023-04-24T03:54:21;10.50;99.90
31074;DHT22;17730;53.552;9.940;2023-04-24T03:56:46;10.50;99.90
31074;DHT22;17730;53.552;9.940;2023-04-24T03:59:12;10.50;99.90
31074;DHT22;17730;53.552;9.940;2023-04-24T04:01:38;10.50;99.90
31074;DHT22;17730;53.552;9.940;2023-04-24T04:04:05;10.50;99.90
31074;DHT22;17730;53.552;9.940;2023-04-24T04:06:30;10.60;99.90
31074;DHT22;17730;53.552;9.940;2023-04-24T04:08:56;10.60;99.90
31074;DHT22;17730;53.552;9.940;2023-04-24T04:11:22;10.60;99.90
31074;DHT22;17730;53.552;9.940;2023-04-24T04:13:47;10.70;99.90
31074;DHT22;17730;53.552;9.940;2023-04-24T04:16:13;10.70;99.90
31074;DHT22;17730;53.552;9.940;2023-04-24T04:18:39;10.60;99.90
31074;DHT22;17730;53.552;9.940;2023-04-24T04:21:04;10.60;99.90
31074;DHT22;17730;53.552;9.940;2023-04-24T04:23:30;10.70;99.90
31074;DHT22;17730;53.552;9.940;2023-04-24T04:25:55;10.60;99.90
31074;DHT22;17730;53.552;9.940;2023-04-24T04:28:21;10.60;99.90
31074;DHT22;17730;53.552;9.940;2023-04-24T04:30:46;10.60;99.90
31074;DHT22;17730;53.552;9.940;2023-04-24T04:33:12;10.70;99.90
31074;DHT22;17730;53.552;9.940;2023-04-24T04:35:38;10.80;99.90
31074;DHT22;17730;53.552;9.940;2023-04-24T04:38:03;10.90;99.90
31074;DHT22;17730;53.552;9.940;2023-04-24T04:40:29;10.90;99.90
31074;DHT22;17730;53.552;9.940;2023-04-24T04:42:55;10.90;99.90
31074;DHT22;17730;53.552;9.940;2023-04-24T04:45:21;10.90;99.90
31074;DHT22;17730;53.552;9.940;2023-04-24T04:47:46;11.00;99.90
31074;DHT22;17730;53.552;9.940;2023-04-24T04:50:12;11.30;99.90
31074;DHT22;17730;53.552;9.940;2023-04-24T04:52:38;11.40;99.90
31074;DHT22;17730;53.552;9.940;2023-04-24T04:55:04;11.60;99.90
31074;DHT22;17730;53.552;9.940;2023-04-24T04:57:30;11.70;99.90
31074;DHT22;17730;53.552;9.940;2023-04-24T04:59:56;11.70;99.90
31074;DHT22;17730;53.552;9.940;2023-04-24T05:02:21;11.70;99.90
31074;DHT22;17730;53.552;9.940;2023-04-24T05:04:46;11.70;99.90
31074;DHT22;17730;53.552;9.940;2023-04-24T05:07:12;11.50;99.90
31074;DHT22;17730;53.552;9.940;2023-04-24T05:09:38;11.50;99.90
31074;DHT22;17730;53.552;9.940;2023-04-24T05:12:03;11.40;99.90
31074;DHT22;17730;53.552;9.940;2023-04-24T05:14:29;11.40;99.90
31074;DHT22;17730;53.552;9.940;2023-04-24T05:16:54;11.30;99.90
31074;DHT22;17730;53.552;9.940;2023-04-24T05:19:20;11.40;99.90
31074;DHT22;17730;53.552;9.940;2023-04-24T05:21:45;11.40;99.90
31074;DHT22;17730;53.552;9.940;2023-04-24T05:24:11;11.40;99.90
31074;DHT22;17730;53.552;9.940;2023-04-24T05:26:36;11.50;99.90
31074;DHT22;17730;53.552;9.940;2023-04-24T05:29:02;11.60;99.90
31074;DHT22;17730;53.552;9.940;2023-04-24T05:31:27;11.60;99.90
31074;DHT22;17730;53.552;9.940;2023-04-24T05:33:53;11.60;99.90
31074;DHT22;17730;53.552;9.940;2023-04-24T05:36:18;11.70;99.90
31074;DHT22;17730;53.552;9.940;2023-04-24T05:38:44;11.70;99.90
31074;DHT22;17730;53.552;9.940;2023-04-24T05:41:09;11.70;99.90
31074;DHT22;17730;53.552;9.940;2023-04-24T05:43:35;11.70;99.90
31074;DHT22;17730;53.552;9.940;2023-04-24T05:46:00;11.80;99.90
31074;DHT22;17730;53.552;9.940;2023-04-24T05:48:26;11.80;99.90
31074;DHT22;17730;53.552;9.940;2023-04-24T05:50:51;11.80;99.90
31074;DHT22;17730;53.552;9.940;2023-04-24T05:53:18;11.80;99.90
31074;DHT22;17730;53.552;9.940;2023-04-24T05:55:43;11.80;99.90
31074;DHT22;17730;53.552;9.940;2023-04-24T05:58:09;11.90;99.90
31074;DHT22;17730;53.552;9.940;2023-04-24T06:00:34;11.90;99.90
31074;DHT22;17730;53.552;9.940;2023-04-24T06:03:00;12.00;99.90
31074;DHT22;17730;53.552;9.940;2023-04-24T06:05:25;12.00;99.90
31074;DHT22;17730;53.552;9.940;2023-04-24T06:07:51;12.10;99.90
31074;DHT22;17730;53.552;9.940;2023-04-24T06:10:16;12.10;99.90
31074;DHT22;17730;53.552;9.940;2023-04-24T06:12:42;12.10;99.90
31074;DHT22;17730;53.552;9.940;2023-04-24T06:15:07;12.20;99.90
31074;DHT22;17730;53.552;9.940;2023-04-24T06:17:33;12.30;99.90
31074;DHT22;17730;53.552;9.940;2023-04-24T06:19:58;12.40;99.90
31074;DHT22;17730;53.552;9.940;2023-04-24T06:22:24;12.40;99.90
31074;DHT22;17730;53.552;9.940;2023-04-24T06:24:49;12.40;99.90
31074;DHT22;17730;53.552;9.940;2023-04-24T06:27:15;12.50;99.90
31074;DHT22;17730;53.552;9.940;2023-04-24T06:29:40;12.50;99.90
31074;DHT22;17730;53.552;9.940;2023-04-24T06:32:06;12.60;99.90
31074;DHT22;17730;53.552;9.940;2023-04-24T06:34:31;12.70;99.90
31074;DHT22;17730;53.552;9.940;2023-04-24T06:36:58;12.70;99.90
31074;DHT22;17730;53.552;9.940;2023-04-24T06:39:24;12.80;99.90
31074;DHT22;17730;53.552;9.940;2023-04-24T06:41:50;12.90;99.90
31074;DHT22;17730;53.552;9.940;2023-04-24T06:44:15;12.90;99.90
31074;DHT22;17730;53.552;9.940;2023-04-24T06:46:41;13.00;99.90
31074;DHT22;17730;53.552;9.940;2023-04-24T06:49:07;13.10;99.90
31074;DHT22;17730;53.552;9.940;2023-04-24T06:51:32;13.10;99.90
31074;DHT22;17730;53.552;9.940;2023-04-24T06:53:58;13.20;99.90
31074;DHT22;17730;53.552;9.940;2023-04-24T06:56:23;13.30;99.90
31074;DHT22;17730;53.552;9.940;2023-04-24T06:58:51;13.50;99.90
31074;DHT22;17730;53.552;9.940;2023-04-24T07:01:16;13.70;99.90
31074;DHT22;17730;53.552;9.940;2023-04-24T07:03:42;13.70;99.90
31074;DHT22;17730;53.552;9.940;2023-04-24T07:06:07;13.70;99.90
31074;DHT22;17730;53.552;9.940;2023-04-24T07:08:34;13.80;99.90
31074;DHT22;17730;53.552;9.940;2023-04-24T07:11:01;13.80;99.90
31074;DHT22;17730;53.552;9.940;2023-04-24T07:13:26;13.90;99.90
31074;DHT22;17730;53.552;9.940;2023-04-24T07:15:53;14.00;99.90
31074;DHT22;17730;53.552;9.940;2023-04-24T07:18:20;14.10;99.90
31074;DHT22;17730;53.552;9.940;2023-04-24T07:20:46;14.40;99.90
31074;DHT22;17730;53.552;9.940;2023-04-24T07:23:11;14.60;99.90
31074;DHT22;17730;53.552;9.940;2023-04-24T07:25:37;14.60;99.90
31074;DHT22;17730;53.552;9.940;2023-04-24T07:28:03;14.60;99.90
31074;DHT22;17730;53.552;9.940;2023-04-24T07:30:30;14.60;99.90
31074;DHT22;17730;53.552;9.940;2023-04-24T07:32:55;14.60;99.90
31074;DHT22;17730;53.552;9.940;2023-04-24T07:35:21;14.60;99.90
31074;DHT22;17730;53.552;9.940;2023-04-24T07:37:46;14.70;99.90
31074;DHT22;17730;53.552;9.940;2023-04-24T07:40:12;14.70;99.90
31074;DHT22;17730;53.552;9.940;2023-04-24T07:42:38;14.90;99.90
31074;DHT22;17730;53.552;9.940;2023-04-24T07:45:04;14.90;99.90
31074;DHT22;17730;53.552;9.940;2023-04-24T07:47:29;15.00;99.90
31074;DHT22;17730;53.552;9.940;2023-04-24T07:49:55;15.00;99.90
31074;DHT22;17730;53.552;9.940;2023-04-24T07:52:21;15.00;99.90
31074;DHT22;17730;53.552;9.940;2023-04-24T07:54:46;14.90;99.90
31074;DHT22;17730;53.552;9.940;2023-04-24T07:57:12;14.80;99.90
31074;DHT22;17730;53.552;9.940;2023-04-24T07:59:37;14.80;99.90
31074;DHT22;17730;53.552;9.940;2023-04-24T08:02:03;14.90;99.90
31074;DHT22;17730;53.552;9.940;2023-04-24T08:04:28;14.80;99.90
31074;DHT22;17730;53.552;9.940;2023-04-24T08:06:54;14.80;99.90
31074;DHT22;17730;53.552;9.940;2023-04-24T08:09:19;14.80;99.90
31074;DHT22;17730;53.552;9.940;2023-04-24T08:11:45;14.80;99.90
31074;DHT22;17730;53.552;9.940;2023-04-24T08:14:10;14.80;99.90
31074;DHT22;17730;53.552;9.940;2023-04-24T08:16:38;14.70;99.90
31074;DHT22;17730;53.552;9.940;2023-04-24T08:19:03;14.50;99.90
31074;DHT22;17730;53.552;9.940;2023-04-24T08:21:29;14.50;99.90
31074;DHT22;17730;53.552;9.940;2023-04-24T08:23:55;14.60;99.90
31074;DHT22;17730;53.552;9.940;2023-04-24T08:26:20;14.70;99.90
31074;DHT22;17730;53.552;9.940;2023-04-24T08:28:46;14.70;99.90
31074;DHT22;17730;53.552;9.940;2023-04-24T08:31:11;14.70;99.90
31074;DHT22;17730;53.552;9.940;2023-04-24T08:33:36;14.60;99.90
31074;DHT22;17730;53.552;9.940;2023-04-24T08:36:03;14.70;99.90
31074;DHT22;17730;53.552;9.940;2023-04-24T08:38:28;14.70;99.90
31074;DHT22;17730;53.552;9.940;2023-04-24T08:40:54;14.60;99.90
31074;DHT22;17730;53.552;9.940;2023-04-24T08:43:21;14.60;99.90
31074;DHT22;17730;53.552;9.940;2023-04-24T08:45:46;14.40;99.90
31074;DHT22;17730;53.552;9.940;2023-04-24T08:48:12;14.30;99.90
31074;DHT22;17730;53.552;9.940;2023-04-24T08:50:38;14.40;99.90
31074;DHT22;17730;53.552;9.940;2023-04-24T08:53:08;14.50;99.90
31074;DHT22;17730;53.552;9.940;2023-04-24T08:55:34;14.50;99.90
31074;DHT22;17730;53.552;9.940;2023-04-24T08:57:59;14.60;99.90
31074;DHT22;17730;53.552;9.940;2023-04-24T09:00:26;14.90;99.90
31074;DHT22;17730;53.552;9.940;2023-04-24T09:02:53;15.20;99.90
31074;DHT22;17730;53.552;9.940;2023-04-24T09:05:18;15.50;99.90
31074;DHT22;17730;53.552;9.940;2023-04-24T09:07:47;15.80;99.30
31074;DHT22;17730;53.552;9.940;2023-04-24T09:10:14;16.00;98.70
31074;DHT22;17730;53.552;9.940;2023-04-24T09:12:41;16.20;97.70
31074;DHT22;17730;53.552;9.940;2023-04-24T09:15:06;16.30;97.50
31074;DHT22;17730;53.552;9.940;2023-04-24T09:17:33;16.20;97.80
31074;DHT22;17730;53.552;9.940;2023-04-24T09:19:59;16.00;97.70
31074;DHT22;17730;53.552;9.940;2023-04-24T09:22:24;15.90;97.60
31074;DHT22;17730;53.552;9.940;2023-04-24T09:24:59;15.90;97.80
31074;DHT22;17730;53.552;9.940;2023-04-24T09:27:25;15.80;98.00
31074;DHT22;17730;53.552;9.940;2023-04-24T09:29:54;15.70;98.00
31074;DHT22;17730;53.552;9.940;2023-04-24T09:32:23;15.60;98.20
31074;DHT22;17730;53.552;9.940;2023-04-24T09:37:35;15.50;98.20
31074;DHT22;17730;53.552;9.940;2023-04-24T09:40:08;15.30;98.40
31074;DHT22;17730;53.552;9.940;2023-04-24T09:42:35;15.00;98.80
31074;DHT22;17730;53.552;9.940;2023-04-24T09:45:00;15.00;99.20
31074;DHT22;17730;53.552;9.940;2023-04-24T09:47:26;14.90;99.50
31074;DHT22;17730;53.552;9.940;2023-04-24T09:49:53;14.70;99.90
31074;DHT22;17730;53.552;9.940;2023-04-24T09:52:22;14.60;99.90
31074;DHT22;17730;53.552;9.940;2023-04-24T09:54:53;14.50;99.90
31074;DHT22;17730;53.552;9.940;2023-04-24T09:57:19;14.30;99.90
31074;DHT22;17730;53.552;9.940;2023-04-24T09:59:45;14.30;99.90
31074;DHT22;17730;53.552;9.940;2023-04-24T10:02:18;14.20;99.90
31074;DHT22;17730;53.552;9.940;2023-04-24T10:04:53;14.10;99.90
31074;DHT22;17730;53.552;9.940;2023-04-24T10:07:19;14.00;99.90
31074;DHT22;17730;53.552;9.940;2023-04-24T10:09:44;14.00;99.90
31074;DHT22;17730;53.552;9.940;2023-04-24T10:12:10;14.10;99.90
31074;DHT22;17730;53.552;9.940;2023-04-24T10:14:36;14.10;99.90
31074;DHT22;17730;53.552;9.940;2023-04-24T10:17:01;14.20;99.90
31074;DHT22;17730;53.552;9.940;2023-04-24T10:19:28;14.30;99.90
31074;DHT22;17730;53.552;9.940;2023-04-24T10:21:54;14.30;99.90
31074;DHT22;17730;53.552;9.940;2023-04-24T10:24:21;14.30;99.90
31074;DHT22;17730;53.552;9.940;2023-04-24T10:26:47;14.50;99.90
31074;DHT22;17730;53.552;9.940;2023-04-24T10:29:17;14.50;99.90
31074;DHT22;17730;53.552;9.940;2023-04-24T10:31:42;14.60;99.90
31074;DHT22;17730;53.552;9.940;2023-04-24T10:34:10;14.50;99.90
31074;DHT22;17730;53.552;9.940;2023-04-24T10:36:38;14.60;99.90
31074;DHT22;17730;53.552;9.940;2023-04-24T10:39:06;14.60;99.90
31074;DHT22;17730;53.552;9.940;2023-04-24T10:41:33;14.70;99.90
31074;DHT22;17730;53.552;9.940;2023-04-24T10:44:08;14.80;99.90
31074;DHT22;17730;53.552;9.940;2023-04-24T10:46:35;14.90;99.90
31074;DHT22;17730;53.552;9.940;2023-04-24T10:49:03;15.00;99.90
31074;DHT22;17730;53.552;9.940;2023-04-24T10:51:48;14.80;99.50
31074;DHT22;17730;53.552;9.940;2023-04-24T10:54:23;14.80;99.70
31074;DHT22;17730;53.552;9.940;2023-04-24T10:56:49;14.80;99.90
31074;DHT22;17730;53.552;9.940;2023-04-24T10:59:23;14.70;99.50
31074;DHT22;17730;53.552;9.940;2023-04-24T11:01:53;14.80;99.50
31074;DHT22;17730;53.552;9.940;2023-04-24T11:04:28;14.90;99.40
31074;DHT22;17730;53.552;9.940;2023-04-24T11:06:54;15.00;99.20
31074;DHT22;17730;53.552;9.940;2023-04-24T11:09:20;15.10;98.70
31074;DHT22;17730;53.552;9.940;2023-04-24T11:11:46;15.10;98.40
31074;DHT22;17730;53.552;9.940;2023-04-24T11:14:15;15.20;98.60
31074;DHT22;17730;53.552;9.940;2023-04-24T11:16:53;15.30;98.10
31074;DHT22;17730;53.552;9.940;2023-04-24T11:22:04;15.30;98.10
31074;DHT22;17730;53.552;9.940;2023-04-24T11:24:31;15.30;97.90
31074;DHT22;17730;53.552;9.940;2023-04-24T11:26:58;15.30;97.00
31074;DHT22;17730;53.552;9.940;2023-04-24T11:32:19;15.50;96.60
31074;DHT22;17730;53.552;9.940;2023-04-24T11:34:49;15.60;96.90
31074;DHT22;17730;53.552;9.940;2023-04-24T11:37:15;15.80;96.40
31074;DHT22;17730;53.552;9.940;2023-04-24T11:39:41;15.80;95.70
31074;DHT22;17730;53.552;9.940;2023-04-24T11:42:06;15.70;95.80
31074;DHT22;17730;53.552;9.940;2023-04-24T11:44:36;15.60;96.10
31074;DHT22;17730;53.552;9.940;2023-04-24T11:47:05;15.50;96.20
31074;DHT22;17730;53.552;9.940;2023-04-24T11:49:32;15.30;96.20
31074;DHT22;17730;53.552;9.940;2023-04-24T11:51:57;15.10;96.50
31074;DHT22;17730;53.552;9.940;2023-04-24T11:54:25;15.00;97.00
31074;DHT22;17730;53.552;9.940;2023-04-24T11:56:50;14.90;97.10
31074;DHT22;17730;53.552;9.940;2023-04-24T11:59:16;14.70;97.10
31074;DHT22;17730;53.552;9.940;2023-04-24T12:01:45;14.70;97.30
31074;DHT22;17730;53.552;9.940;2023-04-24T12:04:11;14.80;97.20
31074;DHT22;17730;53.552;9.940;2023-04-24T12:06:37;15.00;96.90
31074;DHT22;17730;53.552;9.940;2023-04-24T12:09:02;15.20;96.50
31074;DHT22;17730;53.552;9.940;2023-04-24T12:11:28;15.30;96.30
31074;DHT22;17730;53.552;9.940;2023-04-24T12:13:53;15.40;96.20
31074;DHT22;17730;53.552;9.940;2023-04-24T12:16:19;15.30;96.20
31074;DHT22;17730;53.552;9.940;2023-04-24T12:18:45;15.20;95.60
31074;DHT22;17730;53.552;9.940;2023-04-24T12:21:14;15.10;95.80
31074;DHT22;17730;53.552;9.940;2023-04-24T12:23:42;14.90;96.10
31074;DHT22;17730;53.552;9.940;2023-04-24T12:26:07;14.80;96.60
31074;DHT22;17730;53.552;9.940;2023-04-24T12:28:36;14.70;96.90
31074;DHT22;17730;53.552;9.940;2023-04-24T12:31:02;14.60;97.20
31074;DHT22;17730;53.552;9.940;2023-04-24T12:33:27;14.50;97.60
31074;DHT22;17730;53.552;9.940;2023-04-24T12:35:53;14.40;98.00
31074;DHT22;17730;53.552;9.940;2023-04-24T12:38:21;14.30;98.40
31074;DHT22;17730;53.552;9.940;2023-04-24T12:41:01;14.30;98.70
31074;DHT22;17730;53.552;9.940;2023-04-24T12:43:27;14.20;98.80
31074;DHT22;17730;53.552;9.940;2023-04-24T12:45:52;14.10;99.10
31074;DHT22;17730;53.552;9.940;2023-04-24T12:48:18;14.20;99.30
31074;DHT22;17730;53.552;9.940;2023-04-24T12:50:43;14.10;99.30
31074;DHT22;17730;53.552;9.940;2023-04-24T12:53:09;14.10;99.50
31074;DHT22;17730;53.552;9.940;2023-04-24T12:55:35;14.00;99.80
31074;DHT22;17730;53.552;9.940;2023-04-24T12:58:00;13.90;99.90
31074;DHT22;17730;53.552;9.940;2023-04-24T13:00:27;13.80;99.90
31074;DHT22;17730;53.552;9.940;2023-04-24T13:02:52;13.70;99.90
31074;DHT22;17730;53.552;9.940;2023-04-24T13:05:18;13.70;99.90
31074;DHT22;17730;53.552;9.940;2023-04-24T13:07:43;13.70;99.90
31074;DHT22;17730;53.552;9.940;2023-04-24T13:10:09;13.70;99.90
31074;DHT22;17730;53.552;9.940;2023-04-24T13:12:35;13.60;99.90
31074;DHT22;17730;53.552;9.940;2023-04-24T13:15:00;13.50;99.90
31074;DHT22;17730;53.552;9.940;2023-04-24T13:17:26;13.50;99.90
31074;DHT22;17730;53.552;9.940;2023-04-24T13:19:51;13.40;99.90
31074;DHT22;17730;53.552;9.940;2023-04-24T13:22:17;13.50;99.90
31074;DHT22;17730;53.552;9.940;2023-04-24T13:24:44;13.60;99.90
31074;DHT22;17730;53.552;9.940;2023-04-24T13:27:10;13.60;99.90
31074;DHT22;17730;53.552;9.940;2023-04-24T13:29:35;13.50;99.90
31074;DHT22;17730;53.552;9.940;2023-04-24T13:32:01;13.50;99.90
31074;DHT22;17730;53.552;9.940;2023-04-24T13:34:27;13.50;99.90
31074;DHT22;17730;53.552;9.940;2023-04-24T13:36:53;13.50;99.90
31074;DHT22;17730;53.552;9.940;2023-04-24T13:39:18;13.40;99.90
31074;DHT22;17730;53.552;9.940;2023-04-24T13:41:44;13.40;99.90
31074;DHT22;17730;53.552;9.940;2023-04-24T13:44:10;13.30;99.90
31074;DHT22;17730;53.552;9.940;2023-04-24T13:46:35;13.30;99.90
31074;DHT22;17730;53.552;9.940;2023-04-24T13:49:02;13.40;99.90
31074;DHT22;17730;53.552;9.940;2023-04-24T13:51:28;13.40;99.90
31074;DHT22;17730;53.552;9.940;2023-04-24T13:53:54;13.50;99.90
31074;DHT22;17730;53.552;9.940;2023-04-24T13:56:20;13.50;99.90
31074;DHT22;17730;53.552;9.940;2023-04-24T13:58:46;13.60;99.90
31074;DHT22;17730;53.552;9.940;2023-04-24T14:01:11;13.60;99.90
31074;DHT22;17730;53.552;9.940;2023-04-24T14:03:37;13.60;99.90
31074;DHT22;17730;53.552;9.940;2023-04-24T14:06:03;13.50;99.90
31074;DHT22;17730;53.552;9.940;2023-04-24T14:08:28;13.40;99.90
31074;DHT22;17730;53.552;9.940;2023-04-24T14:10:53;13.50;99.90
31074;DHT22;17730;53.552;9.940;2023-04-24T14:13:19;13.60;99.90
31074;DHT22;17730;53.552;9.940;2023-04-24T14:15:45;13.70;99.90
31074;DHT22;17730;53.552;9.940;2023-04-24T14:18:10;13.80;99.90
31074;DHT22;17730;53.552;9.940;2023-04-24T14:20:36;13.80;99.90
31074;DHT22;17730;53.552;9.940;2023-04-24T14:23:01;13.80;99.90
31074;DHT22;17730;53.552;9.940;2023-04-24T14:25:27;13.70;99.90
31074;DHT22;17730;53.552;9.940;2023-04-24T14:27:52;13.50;99.90
31074;DHT22;17730;53.552;9.940;2023-04-24T14:30:18;13.50;99.90
31074;DHT22;17730;53.552;9.940;2023-04-24T14:32:44;13.30;99.90
31074;DHT22;17730;53.552;9.940;2023-04-24T14:35:10;13.00;99.90
31074;DHT22;17730;53.552;9.940;2023-04-24T14:37:36;12.80;99.90
31074;DHT22;17730;53.552;9.940;2023-04-24T14:40:01;12.60;99.90
31074;DHT22;17730;53.552;9.940;2023-04-24T14:42:27;12.40;99.90
31074;DHT22;17730;53.552;9.940;2023-04-24T14:44:54;12.20;99.90
31074;DHT22;17730;53.552;9.940;2023-04-24T14:47:19;12.10;99.90
31074;DHT22;17730;53.552;9.940;2023-04-24T14:49:47;12.00;99.90
31074;DHT22;17730;53.552;9.940;2023-04-24T14:52:13;12.00;99.90
31074;DHT22;17730;53.552;9.940;2023-04-24T14:54:38;12.00;99.90
31074;DHT22;17730;53.552;9.940;2023-04-24T14:57:03;12.00;99.90
31074;DHT22;17730;53.552;9.940;2023-04-24T14:59:29;12.00;99.90
31074;DHT22;17730;53.552;9.940;2023-04-24T15:01:56;11.90;99.90
31074;DHT22;17730;53.552;9.940;2023-04-24T15:04:23;11.70;99.90
31074;DHT22;17730;53.552;9.940;2023-04-24T15:06:51;11.60;99.90
31074;DHT22;17730;53.552;9.940;2023-04-24T15:09:16;11.60;99.90
31074;DHT22;17730;53.552;9.940;2023-04-24T15:11:42;11.50;99.90
31074;DHT22;17730;53.552;9.940;2023-04-24T15:14:07;11.40;99.90
31074;DHT22;17730;53.552;9.940;2023-04-24T15:16:33;11.30;99.90
31074;DHT22;17730;53.552;9.940;2023-04-24T15:18:58;11.20;99.90
31074;DHT22;17730;53.552;9.940;2023-04-24T15:21:24;11.10;99.90
31074;DHT22;17730;53.552;9.940;2023-04-24T15:23:49;10.90;99.90
31074;DHT22;17730;53.552;9.940;2023-04-24T15:26:15;10.80;99.90
31074;DHT22;17730;53.552;9.940;2023-04-24T15:28:40;10.80;99.90
31074;DHT22;17730;53.552;9.940;2023-04-24T15:31:06;10.70;99.90